sensor_id;sensor_type;location;lat;lon;timestamp;pressure;altitude;pressure_sealevel;temperature;humidity
28927;BME280;16038;47.692;9.400;2023-04-24T00:01:57;95809.16;;;10.15;100.00
28927;BME280;16038;47.692;9.400;2023-04-24T00:04:23;95804.84;;;10.07;100.00
28927;BME280;16038;47.692;9.400;2023-04-24T00:06:51;95799.72;;;9.94;100.00
28927;BME280;16038;47.692;9.400;2023-04-24T00:09:19;95798.97;;;9.98;100.00
28927;BME280;16038;47.692;9.400;2023-04-24T00:11:44;95795.50;;;10.15;100.00
28927;BME280;16038;47.692;9.400;2023-04-24T00:14:09;95804.91;;;10.18;100.00
28927;BME280;16038;47.692;9.400;2023-04-24T00:16:34;95799.00;;;10.08;100.00
28927;BME280;16038;47.692;9.400;2023-04-24T00:19:00;95798.19;;;10.08;100.00
28927;BME280;16038;47.692;9.400;2023-04-24T00:21:25;95793.53;;;10.08;100.00
28927;BME280;16038;47.692;9.400;2023-04-24T00:23:51;95792.75;;;10.15;100.00
28927;BME280;16038;47.692;9.400;2023-04-24T00:26:17;95795.91;;;10.28;100.00
28927;BME280;16038;47.692;9.400;2023-04-24T00:28:42;95791.63;;;10.30;100.00
28927;BME280;16038;47.692;9.400;2023-04-24T00:31:08;95793.53;;;10.08;100.00
28927;BME280;16038;47.692;9.400;2023-04-24T00:33:33;95791.16;;;10.03;100.00
28927;BME280;16038;47.692;9.400;2023-04-24T00:35:58;95796.63;;;10.03;100.00
28927;BME280;16038;47.692;9.400;2023-04-24T00:38:24;95801.28;;;9.99;100.00
28927;BME280;16038;47.692;9.400;2023-04-24T00:40:49;95797.38;;;9.97;100.00
28927;BME280;16038;47.692;9.400;2023-04-24T00:43:19;95805.59;;;10.00;100.00
28927;BME280;16038;47.692;9.400;2023-04-24T00:45:44;95799.75;;;10.05;100.00
28927;BME280;16038;47.692;9.400;2023-04-24T00:48:09;95794.28;;;10.02;100.00
28927;BME280;16038;47.692;9.400;2023-04-24T00:50:36;95787.22;;;9.97;100.00
28927;BME280;16038;47.692;9.400;2023-04-24T00:53:01;95790.28;;;9.88;100.00
28927;BME280;16038;47.692;9.400;2023-04-24T00:55:27;95792.31;;;10.02;100.00
28927;BME280;16038;47.692;9.400;2023-04-24T00:57:52;95788.03;;;10.05;100.00
28927;BME280;16038;47.692;9.400;2023-04-24T01:00:17;95787.63;;;10.06;100.00
28927;BME280;16038;47.692;9.400;2023-04-24T01:02:43;95789.16;;;9.93;100.00
28927;BME280;16038;47.692;9.400;2023-04-24T01:05:10;95784.84;;;9.95;100.00
28927;BME280;16038;47.692;9.400;2023-04-24T01:07:37;95784.50;;;10.01;100.00
28927;BME280;16038;47.692;9.400;2023-04-24T01:10:03;95788.41;;;10.00;100.00
28927;BME280;16038;47.692;9.400;2023-04-24T01:12:29;95777.84;;;9.94;100.00
28927;BME280;16038;47.692;9.400;2023-04-24T01:14:54;95777.44;;;9.92;100.00
28927;BME280;16038;47.692;9.400;2023-04-24T01:17:21;95776.56;;;9.77;100.00
28927;BME280;16038;47.692;9.400;2023-04-24T01:19:46;95773.41;;;9.68;100.00
28927;BME280;16038;47.692;9.400;2023-04-24T01:22:15;95777.38;;;9.78;100.00
28927;BME280;16038;47.692;9.400;2023-04-24T01:24:42;95779.31;;;9.77;100.00
28927;BME280;16038;47.692;9.400;2023-04-24T01:27:08;95771.16;;;9.88;100.00
28927;BME280;16038;47.692;9.400;2023-04-24T01:29:34;95779.34;;;9.88;100.00
28927;BME280;16038;47.692;9.400;2023-04-24T01:31:59;95771.59;;;9.94;100.00
28927;BME280;16038;47.692;9.400;2023-04-24T01:34:25;95779.75;;;9.83;100.00
28927;BME280;16038;47.692;9.400;2023-04-24T01:36:50;95775.03;;;9.76;100.00
28927;BME280;16038;47.692;9.400;2023-04-24T01:39:15;95783.97;;;9.73;100.00
28927;BME280;16038;47.692;9.400;2023-04-24T01:41:41;95783.56;;;9.64;100.00
28927;BME280;16038;47.692;9.400;2023-04-24T01:44:07;95777.75;;;9.76;100.00
28927;BME280;16038;47.692;9.400;2023-04-24T01:46:32;95771.94;;;9.82;100.00
28927;BME280;16038;47.692;9.400;2023-04-24T01:48:59;95771.56;;;9.87;100.00
28927;BME280;16038;47.692;9.400;2023-04-24T01:51:25;95766.81;;;9.76;100.00
28927;BME280;16038;47.692;9.400;2023-04-24T01:53:50;95761.72;;;9.75;100.00
28927;BME280;16038;47.692;9.400;2023-04-24T01:56:16;95762.03;;;9.59;100.00
28927;BME280;16038;47.692;9.400;2023-04-24T01:58:41;95760.50;;;9.58;100.00
28927;BME280;16038;47.692;9.400;2023-04-24T02:01:07;95770.25;;;9.59;100.00
28927;BME280;16038;47.692;9.400;2023-04-24T02:03:32;95769.00;;;9.46;100.00
28927;BME280;16038;47.692;9.400;2023-04-24T02:05:58;95777.09;;;9.28;100.00
28927;BME280;16038;47.692;9.400;2023-04-24T02:08:23;95775.97;;;9.40;100.00
28927;BME280;16038;47.692;9.400;2023-04-24T02:10:49;95778.41;;;9.52;100.00
28927;BME280;16038;47.692;9.400;2023-04-24T02:13:14;95783.03;;;9.41;100.00
28927;BME280;16038;47.692;9.400;2023-04-24T02:15:39;95779.91;;;9.42;100.00
28927;BME280;16038;47.692;9.400;2023-04-24T02:18:04;95781.09;;;9.45;100.00
28927;BME280;16038;47.692;9.400;2023-04-24T02:20:32;95791.97;;;9.37;100.00
28927;BME280;16038;47.692;9.400;2023-04-24T02:22:59;95787.66;;;9.29;100.00
28927;BME280;16038;47.692;9.400;2023-04-24T02:25:24;95784.91;;;9.29;100.00
28927;BME280;16038;47.692;9.400;2023-04-24T02:27:49;95793.78;;;9.12;100.00
28927;BME280;16038;47.692;9.400;2023-04-24T02:30:15;95785.97;;;9.14;100.00
28927;BME280;16038;47.692;9.400;2023-04-24T02:32:40;95787.59;;;9.22;100.00
28927;BME280;16038;47.692;9.400;2023-04-24T02:35:05;95778.19;;;9.16;100.00
28927;BME280;16038;47.692;9.400;2023-04-24T02:37:31;95785.66;;;9.23;100.00
28927;BME280;16038;47.692;9.400;2023-04-24T02:39:56;95787.91;;;9.10;100.00
28927;BME280;16038;47.692;9.400;2023-04-24T02:42:22;95781.63;;;9.06;100.00
28927;BME280;16038;47.692;9.400;2023-04-24T02:44:47;95784.00;;;9.14;100.00
28927;BME280;16038;47.692;9.400;2023-04-24T02:47:12;95787.59;;;9.18;100.00
28927;BME280;16038;47.692;9.400;2023-04-24T02:49:37;95782.91;;;9.23;100.00
28927;BME280;16038;47.692;9.400;2023-04-24T02:52:03;95789.91;;;9.16;100.00
28927;BME280;16038;47.692;9.400;2023-04-24T02:54:28;95782.06;;;9.11;100.00
28927;BME280;16038;47.692;9.400;2023-04-24T02:56:53;95799.94;;;9.05;100.00
28927;BME280;16038;47.692;9.400;2023-04-24T02:59:18;95790.66;;;9.13;100.00
28927;BME280;16038;47.692;9.400;2023-04-24T03:01:44;95786.44;;;9.23;100.00
28927;BME280;16038;47.692;9.400;2023-04-24T03:04:09;95785.97;;;9.14;100.00
28927;BME280;16038;47.692;9.400;2023-04-24T03:06:35;95781.34;;;9.25;100.00
28927;BME280;16038;47.692;9.400;2023-04-24T03:09:01;95780.50;;;9.14;100.00
28927;BME280;16038;47.692;9.400;2023-04-24T03:11:26;95776.19;;;9.09;100.00
28927;BME280;16038;47.692;9.400;2023-04-24T03:13:52;95776.88;;;8.95;100.00
28927;BME280;16038;47.692;9.400;2023-04-24T03:16:17;95774.50;;;8.94;100.00
28927;BME280;16038;47.692;9.400;2023-04-24T03:18:42;95777.63;;;8.92;100.00
28927;BME280;16038;47.692;9.400;2023-04-24T03:21:07;95778.09;;;9.05;100.00
28927;BME280;16038;47.692;9.400;2023-04-24T03:23:33;95772.59;;;8.98;100.00
28927;BME280;16038;47.692;9.400;2023-04-24T03:25:58;95772.63;;;9.02;100.00
28927;BME280;16038;47.692;9.400;2023-04-24T03:28:23;95778.91;;;9.06;100.00
28927;BME280;16038;47.692;9.400;2023-04-24T03:30:50;95782.75;;;9.01;100.00
28927;BME280;16038;47.692;9.400;2023-04-24T03:33:15;95774.97;;;9.03;100.00
28927;BME280;16038;47.692;9.400;2023-04-24T03:35:40;95779.31;;;9.08;100.00
28927;BME280;16038;47.692;9.400;2023-04-24T03:38:06;95782.06;;;9.11;100.00
28927;BME280;16038;47.692;9.400;2023-04-24T03:40:31;95775.38;;;9.05;100.00
28927;BME280;16038;47.692;9.400;2023-04-24T03:42:58;95792.03;;;8.93;100.00
28927;BME280;16038;47.692;9.400;2023-04-24T03:45:23;95791.19;;;8.82;100.00
28927;BME280;16038;47.692;9.400;2023-04-24T03:47:49;95791.19;;;8.82;100.00
28927;BME280;16038;47.692;9.400;2023-04-24T03:50:15;95793.91;;;8.82;100.00
28927;BME280;16038;47.692;9.400;2023-04-24T03:52:40;95789.53;;;8.70;100.00
28927;BME280;16038;47.692;9.400;2023-04-24T03:55:05;95793.06;;;8.74;100.00
28927;BME280;16038;47.692;9.400;2023-04-24T03:57:31;95797.34;;;8.75;100.00
28927;BME280;16038;47.692;9.400;2023-04-24T03:59:56;95797.34;;;8.75;100.00
28927;BME280;16038;47.692;9.400;2023-04-24T04:02:22;95789.69;;;8.88;100.00
28927;BME280;16038;47.692;9.400;2023-04-24T04:04:47;95792.81;;;8.90;100.00
28927;BME280;16038;47.692;9.400;2023-04-24T04:07:12;95792.47;;;8.95;100.00
28927;BME280;16038;47.692;9.400;2023-04-24T04:09:38;95801.31;;;8.81;100.00
28927;BME280;16038;47.692;9.400;2023-04-24T04:12:03;95803.38;;;8.91;100.00
28927;BME280;16038;47.692;9.400;2023-04-24T04:14:28;95797.06;;;8.87;100.00
28927;BME280;16038;47.692;9.400;2023-04-24T04:16:54;95802.19;;;8.92;100.00
28927;BME280;16038;47.692;9.400;2023-04-24T04:19:20;95804.13;;;8.88;100.00
28927;BME280;16038;47.692;9.400;2023-04-24T04:21:45;95802.88;;;8.82;100.00
28927;BME280;16038;47.692;9.400;2023-04-24T04:24:11;95795.84;;;8.77;100.00
28927;BME280;16038;47.692;9.400;2023-04-24T04:26:37;95798.16;;;8.75;100.00
28927;BME280;16038;47.692;9.400;2023-04-24T04:29:02;95798.16;;;8.75;100.00
28927;BME280;16038;47.692;9.400;2023-04-24T04:31:28;95801.69;;;8.79;100.00
28927;BME280;16038;47.692;9.400;2023-04-24T04:33:54;95803.63;;;8.75;100.00
28927;BME280;16038;47.692;9.400;2023-04-24T04:36:19;95807.84;;;8.69;100.00
28927;BME280;16038;47.692;9.400;2023-04-24T04:38:45;95812.50;;;8.65;100.00
28927;BME280;16038;47.692;9.400;2023-04-24T04:41:10;95810.06;;;8.56;100.00
28927;BME280;16038;47.692;9.400;2023-04-24T04:43:36;95812.53;;;8.69;100.00
28927;BME280;16038;47.692;9.400;2023-04-24T04:46:01;95813.88;;;8.89;100.00
28927;BME280;16038;47.692;9.400;2023-04-24T04:48:28;95814.75;;;9.01;100.00
28927;BME280;16038;47.692;9.400;2023-04-24T04:50:53;95827.28;;;9.05;100.00
28927;BME280;16038;47.692;9.400;2023-04-24T04:53:19;95819.97;;;9.16;100.00
28927;BME280;16038;47.692;9.400;2023-04-24T04:55:44;95819.50;;;9.11;100.00
28927;BME280;16038;47.692;9.400;2023-04-24T04:58:11;95821.84;;;9.09;100.00
28927;BME280;16038;47.692;9.400;2023-04-24T05:00:36;95837.13;;;9.17;100.00
28927;BME280;16038;47.692;9.400;2023-04-24T05:03:02;95832.91;;;9.27;100.00
28927;BME280;16038;47.692;9.400;2023-04-24T05:05:28;95839.91;;;9.24;100.00
28927;BME280;16038;47.692;9.400;2023-04-24T05:07:53;95844.94;;;9.18;100.00
28927;BME280;16038;47.692;9.400;2023-04-24T05:10:18;95850.75;;;9.13;100.00
28927;BME280;16038;47.692;9.400;2023-04-24T05:12:44;95851.59;;;9.21;100.00
28927;BME280;16038;47.692;9.400;2023-04-24T05:15:09;95857.94;;;9.36;100.00
28927;BME280;16038;47.692;9.400;2023-04-24T05:17:35;95862.28;;;9.41;100.00
28927;BME280;16038;47.692;9.400;2023-04-24T05:20:00;95866.06;;;9.25;100.00
28927;BME280;16038;47.692;9.400;2023-04-24T05:22:25;95878.13;;;9.21;100.00
28927;BME280;16038;47.692;9.400;2023-04-24T05:24:51;95869.13;;;9.16;100.00
28927;BME280;16038;47.692;9.400;2023-04-24T05:27:16;95875.41;;;9.21;100.00
28927;BME280;16038;47.692;9.400;2023-04-24T05:29:41;95878.88;;;9.17;100.00
28927;BME280;16038;47.692;9.400;2023-04-24T05:32:07;95872.31;;;9.22;100.00
28927;BME280;16038;47.692;9.400;2023-04-24T05:34:32;95883.53;;;9.13;100.00
28927;BME280;16038;47.692;9.400;2023-04-24T05:36:57;95881.91;;;9.05;100.00
28927;BME280;16038;47.692;9.400;2023-04-24T05:39:22;95887.91;;;9.25;100.00
28927;BME280;16038;47.692;9.400;2023-04-24T05:41:50;95886.38;;;9.24;100.00
28927;BME280;16038;47.692;9.400;2023-04-24T05:44:15;95892.22;;;9.26;100.00
28927;BME280;16038;47.692;9.400;2023-04-24T05:46:40;95896.94;;;9.26;100.00
28927;BME280;16038;47.692;9.400;2023-04-24T05:49:05;95887.84;;;9.18;100.00
28927;BME280;16038;47.692;9.400;2023-04-24T05:51:31;95888.88;;;8.99;100.00
28927;BME280;16038;47.692;9.400;2023-04-24T05:53:56;95896.72;;;9.04;100.00
28927;BME280;16038;47.692;9.400;2023-04-24T05:56:22;95887.16;;;8.84;100.00
28927;BME280;16038;47.692;9.400;2023-04-24T05:58:47;95888.34;;;8.83;100.00
28927;BME280;16038;47.692;9.400;2023-04-24T06:01:13;95903.88;;;8.78;100.00
28927;BME280;16038;47.692;9.400;2023-04-24T06:03:41;95905.75;;;8.71;100.00
28927;BME280;16038;47.692;9.400;2023-04-24T06:06:07;95911.22;;;8.71;100.00
28927;BME280;16038;47.692;9.400;2023-04-24T06:08:32;95904.81;;;8.93;100.00
28927;BME280;16038;47.692;9.400;2023-04-24T06:10:58;95911.59;;;9.10;100.00
28927;BME280;16038;47.692;9.400;2023-04-24T06:13:23;95905.94;;;9.30;100.00
28927;BME280;16038;47.692;9.400;2023-04-24T06:15:48;95911.97;;;9.53;100.00
28927;BME280;16038;47.692;9.400;2023-04-24T06:18:14;95909.78;;;9.73;100.00
28927;BME280;16038;47.692;9.400;2023-04-24T06:20:40;95916.34;;;9.62;100.00
28927;BME280;16038;47.692;9.400;2023-04-24T06:23:05;95921.00;;;9.61;100.00
28927;BME280;16038;47.692;9.400;2023-04-24T06:25:30;95915.59;;;9.16;100.00
28927;BME280;16038;47.692;9.400;2023-04-24T06:27:56;95917.56;;;9.23;100.00
28927;BME280;16038;47.692;9.400;2023-04-24T06:30:22;95922.63;;;9.21;100.00
28927;BME280;16038;47.692;9.400;2023-04-24T06:32:47;95921.59;;;9.36;100.00
28927;BME280;16038;47.692;9.400;2023-04-24T06:35:12;95922.69;;;10.36;100.00
28927;BME280;16038;47.692;9.400;2023-04-24T06:37:41;95926.47;;;11.47;100.00
28927;BME280;16038;47.692;9.400;2023-04-24T06:40:06;95934.69;;;11.22;100.00
28927;BME280;16038;47.692;9.400;2023-04-24T06:42:32;95929.97;;;11.23;100.00
28927;BME280;16038;47.692;9.400;2023-04-24T06:44:57;95941.09;;;10.46;100.00
28927;BME280;16038;47.692;9.400;2023-04-24T06:47:22;95929.03;;;10.58;100.00
28927;BME280;16038;47.692;9.400;2023-04-24T06:49:48;95946.53;;;10.39;100.00
28927;BME280;16038;47.692;9.400;2023-04-24T06:52:15;95951.38;;;10.04;100.00
28927;BME280;16038;47.692;9.400;2023-04-24T06:54:41;95963.00;;;9.87;100.00
28927;BME280;16038;47.692;9.400;2023-04-24T06:57:06;95960.13;;;11.30;100.00
28927;BME280;16038;47.692;9.400;2023-04-24T06:59:31;95962.53;;;11.96;100.00
28927;BME280;16038;47.692;9.400;2023-04-24T07:01:57;95960.19;;;11.91;100.00
28927;BME280;16038;47.692;9.400;2023-04-24T07:04:22;95954.28;;;12.14;97.40
28927;BME280;16038;47.692;9.400;2023-04-24T07:06:49;95948.31;;;12.52;94.29
28927;BME280;16038;47.692;9.400;2023-04-24T07:09:16;95956.25;;;11.89;100.00
28927;BME280;16038;47.692;9.400;2023-04-24T07:11:43;95963.63;;;11.13;100.00
28927;BME280;16038;47.692;9.400;2023-04-24T07:14:09;95966.03;;;12.15;98.38
28927;BME280;16038;47.692;9.400;2023-04-24T07:16:35;95961.66;;;13.38;97.13
28927;BME280;16038;47.692;9.400;2023-04-24T07:19:00;95973.72;;;14.45;80.01
28927;BME280;16038;47.692;9.400;2023-04-24T07:21:26;95963.94;;;14.03;82.51
28927;BME280;16038;47.692;9.400;2023-04-24T07:23:52;95970.84;;;14.18;77.85
28927;BME280;16038;47.692;9.400;2023-04-24T07:26:17;95970.44;;;13.08;86.49
28927;BME280;16038;47.692;9.400;2023-04-24T07:28:42;95973.75;;;12.70;84.59
28927;BME280;16038;47.692;9.400;2023-04-24T07:31:08;95980.97;;;12.14;90.64
28927;BME280;16038;47.692;9.400;2023-04-24T07:33:33;95970.00;;;12.10;92.64
28927;BME280;16038;47.692;9.400;2023-04-24T07:35:59;95978.94;;;12.39;91.02
28927;BME280;16038;47.692;9.400;2023-04-24T07:38:24;95972.22;;;12.55;85.59
28927;BME280;16038;47.692;9.400;2023-04-24T07:40:50;95977.81;;;12.15;89.51
28927;BME280;16038;47.692;9.400;2023-04-24T07:43:16;95989.59;;;12.16;89.72
28927;BME280;16038;47.692;9.400;2023-04-24T07:45:41;95985.09;;;12.83;90.12
28927;BME280;16038;47.692;9.400;2023-04-24T07:48:08;95984.47;;;13.28;81.92
28927;BME280;16038;47.692;9.400;2023-04-24T07:50:34;95980.03;;;13.52;81.96
28927;BME280;16038;47.692;9.400;2023-04-24T07:52:59;95984.06;;;13.92;77.91
28927;BME280;16038;47.692;9.400;2023-04-24T07:55:25;95972.25;;;13.95;75.03
28927;BME280;16038;47.692;9.400;2023-04-24T07:57:50;95990.09;;;14.22;73.41
28927;BME280;16038;47.692;9.400;2023-04-24T08:00:16;95987.75;;;14.62;69.98
28927;BME280;16038;47.692;9.400;2023-04-24T08:02:41;95980.69;;;14.19;72.58
28927;BME280;16038;47.692;9.400;2023-04-24T08:05:07;95989.78;;;14.54;68.29
28927;BME280;16038;47.692;9.400;2023-04-24T08:07:32;95995.78;;;14.00;71.12
28927;BME280;16038;47.692;9.400;2023-04-24T08:09:58;95990.66;;;13.50;71.01
28927;BME280;16038;47.692;9.400;2023-04-24T08:12:24;95985.19;;;12.47;76.36
28927;BME280;16038;47.692;9.400;2023-04-24T08:14:50;95981.53;;;14.12;72.57
28927;BME280;16038;47.692;9.400;2023-04-24T08:17:16;95989.16;;;15.39;63.78
28927;BME280;16038;47.692;9.400;2023-04-24T08:19:41;95994.31;;;15.37;63.22
28927;BME280;16038;47.692;9.400;2023-04-24T08:22:13;96000.47;;;14.48;66.01
28927;BME280;16038;47.692;9.400;2023-04-24T08:24:39;95995.66;;;13.66;67.48
28927;BME280;16038;47.692;9.400;2023-04-24T08:27:04;96004.91;;;13.34;67.81
28927;BME280;16038;47.692;9.400;2023-04-24T08:29:30;96009.88;;;12.61;72.12
28927;BME280;16038;47.692;9.400;2023-04-24T08:31:55;96012.19;;;12.77;71.99
28927;BME280;16038;47.692;9.400;2023-04-24T08:34:21;96014.63;;;12.50;70.91
28927;BME280;16038;47.692;9.400;2023-04-24T08:36:46;96014.97;;;12.63;70.33
28927;BME280;16038;47.692;9.400;2023-04-24T08:39:11;96029.59;;;13.45;66.29
28927;BME280;16038;47.692;9.400;2023-04-24T08:41:37;96015.75;;;13.59;63.44
28927;BME280;16038;47.692;9.400;2023-04-24T08:44:02;96019.63;;;12.88;63.95
28927;BME280;16038;47.692;9.400;2023-04-24T08:46:28;96036.97;;;12.59;64.69
28927;BME280;16038;47.692;9.400;2023-04-24T08:48:55;96035.38;;;12.66;65.79
28927;BME280;16038;47.692;9.400;2023-04-24T08:51:21;96040.47;;;12.67;67.47
28927;BME280;16038;47.692;9.400;2023-04-24T08:53:46;96045.22;;;12.52;69.22
28927;BME280;16038;47.692;9.400;2023-04-24T08:56:12;96038.16;;;12.48;73.30
28927;BME280;16038;47.692;9.400;2023-04-24T08:58:38;96045.63;;;12.51;73.73
28927;BME280;16038;47.692;9.400;2023-04-24T09:01:04;96035.44;;;12.30;69.16
28927;BME280;16038;47.692;9.400;2023-04-24T09:03:29;96042.50;;;12.27;68.64
28927;BME280;16038;47.692;9.400;2023-04-24T09:05:56;96043.28;;;12.13;71.50
28927;BME280;16038;47.692;9.400;2023-04-24T09:08:23;96049.97;;;12.23;72.28
28927;BME280;16038;47.692;9.400;2023-04-24T09:10:49;96049.56;;;12.46;68.90
28927;BME280;16038;47.692;9.400;2023-04-24T09:13:14;96060.06;;;12.76;65.99
28927;BME280;16038;47.692;9.400;2023-04-24T09:15:40;96039.31;;;12.65;64.12
28927;BME280;16038;47.692;9.400;2023-04-24T09:18:05;96065.81;;;14.03;61.34
28927;BME280;16038;47.692;9.400;2023-04-24T09:20:31;96053.88;;;15.00;56.12
28927;BME280;16038;47.692;9.400;2023-04-24T09:22:57;96060.47;;;15.75;53.46
28927;BME280;16038;47.692;9.400;2023-04-24T09:25:23;96057.69;;;15.44;52.15
28927;BME280;16038;47.692;9.400;2023-04-24T09:27:53;96040.03;;;15.68;52.37
28927;BME280;16038;47.692;9.400;2023-04-24T09:30:20;96062.28;;;14.44;53.30
28927;BME280;16038;47.692;9.400;2023-04-24T09:32:46;96065.50;;;13.86;55.27
28927;BME280;16038;47.692;9.400;2023-04-24T09:35:13;96064.00;;;13.74;55.20
28927;BME280;16038;47.692;9.400;2023-04-24T09:37:39;96069.25;;;13.54;55.16
28927;BME280;16038;47.692;9.400;2023-04-24T09:40:19;96079.06;;;13.52;55.01
28927;BME280;16038;47.692;9.400;2023-04-24T09:42:46;96070.94;;;13.16;55.72
28927;BME280;16038;47.692;9.400;2023-04-24T09:45:16;96073.03;;;12.79;57.02
28927;BME280;16038;47.692;9.400;2023-04-24T09:47:41;96075.44;;;12.52;57.07
28927;BME280;16038;47.692;9.400;2023-04-24T09:50:14;96063.69;;;12.23;58.56
28927;BME280;16038;47.692;9.400;2023-04-24T09:52:40;96070.31;;;12.58;60.93
28927;BME280;16038;47.692;9.400;2023-04-24T09:55:13;96080.50;;;12.79;61.29
28927;BME280;16038;47.692;9.400;2023-04-24T09:57:48;96071.91;;;12.59;61.23
28927;BME280;16038;47.692;9.400;2023-04-24T10:00:17;96077.81;;;12.29;60.16
28927;BME280;16038;47.692;9.400;2023-04-24T10:02:42;96071.50;;;12.60;60.83
28927;BME280;16038;47.692;9.400;2023-04-24T10:05:09;96082.44;;;12.93;59.43
28927;BME280;16038;47.692;9.400;2023-04-24T10:07:37;96074.91;;;13.11;56.83
28927;BME280;16038;47.692;9.400;2023-04-24T10:10:03;96072.88;;;13.26;57.34
28927;BME280;16038;47.692;9.400;2023-04-24T10:12:28;96079.31;;;13.75;55.76
28927;BME280;16038;47.692;9.400;2023-04-24T10:14:54;96068.34;;;13.72;54.70
28927;BME280;16038;47.692;9.400;2023-04-24T10:17:20;96073.56;;;14.11;54.41
28927;BME280;16038;47.692;9.400;2023-04-24T10:19:46;96072.09;;;14.00;54.01
28927;BME280;16038;47.692;9.400;2023-04-24T10:22:12;96076.06;;;13.95;52.18
28927;BME280;16038;47.692;9.400;2023-04-24T10:24:37;96085.88;;;14.94;51.19
28927;BME280;16038;47.692;9.400;2023-04-24T10:27:03;96090.63;;;15.58;50.45
28927;BME280;16038;47.692;9.400;2023-04-24T10:29:30;96091.41;;;14.90;47.87
28927;BME280;16038;47.692;9.400;2023-04-24T10:31:56;96095.69;;;15.33;48.90
28927;BME280;16038;47.692;9.400;2023-04-24T10:34:22;96096.06;;;15.35;47.75
28927;BME280;16038;47.692;9.400;2023-04-24T10:36:48;96097.41;;;14.81;48.66
28927;BME280;16038;47.692;9.400;2023-04-24T10:39:15;96091.47;;;13.85;49.14
28927;BME280;16038;47.692;9.400;2023-04-24T10:41:41;96092.09;;;13.44;48.77
28927;BME280;16038;47.692;9.400;2023-04-24T10:44:07;96098.38;;;13.30;50.15
28927;BME280;16038;47.692;9.400;2023-04-24T10:46:33;96114.91;;;13.37;50.06
28927;BME280;16038;47.692;9.400;2023-04-24T10:48:59;96113.34;;;13.26;49.28
28927;BME280;16038;47.692;9.400;2023-04-24T10:51:25;96118.56;;;12.88;50.85
28927;BME280;16038;47.692;9.400;2023-04-24T10:59:42;96123.72;;;12.39;52.91
28927;BME280;16038;47.692;9.400;2023-04-24T11:02:08;96131.97;;;12.53;52.97
28927;BME280;16038;47.692;9.400;2023-04-24T11:04:34;96124.50;;;12.57;52.28
28927;BME280;16038;47.692;9.400;2023-04-24T11:07:02;96122.13;;;12.67;52.74
28927;BME280;16038;47.692;9.400;2023-04-24T11:09:30;96115.47;;;12.68;51.31
28927;BME280;16038;47.692;9.400;2023-04-24T11:12:05;96120.56;;;12.44;51.67
28927;BME280;16038;47.692;9.400;2023-04-24T11:17:32;96120.13;;;13.91;50.02
28927;BME280;16038;47.692;9.400;2023-04-24T11:20:02;96108.97;;;14.13;47.34
28927;BME280;16038;47.692;9.400;2023-04-24T11:22:29;96112.69;;;13.92;48.34
28927;BME280;16038;47.692;9.400;2023-04-24T11:24:58;96124.72;;;14.12;48.23
28927;BME280;16038;47.692;9.400;2023-04-24T11:27:28;96118.25;;;13.77;49.30
28927;BME280;16038;47.692;9.400;2023-04-24T11:37:20;96122.06;;;13.06;49.74
28927;BME280;16038;47.692;9.400;2023-04-24T11:39:45;96120.09;;;12.96;51.06
28927;BME280;16038;47.692;9.400;2023-04-24T11:42:13;96120.88;;;13.11;49.54
28927;BME280;16038;47.692;9.400;2023-04-24T11:44:39;96118.81;;;13.44;50.28
28927;BME280;16038;47.692;9.400;2023-04-24T11:47:05;96117.19;;;13.53;49.51
28927;BME280;16038;47.692;9.400;2023-04-24T11:49:30;96122.66;;;13.61;48.95
28927;BME280;16038;47.692;9.400;2023-04-24T11:51:56;96125.13;;;13.30;49.97
28927;BME280;16038;47.692;9.400;2023-04-24T11:54:21;96123.91;;;13.45;49.89
28927;BME280;16038;47.692;9.400;2023-04-24T11:56:47;96129.47;;;13.20;50.15
28927;BME280;16038;47.692;9.400;2023-04-24T11:59:12;96136.13;;;13.26;49.01
28927;BME280;16038;47.692;9.400;2023-04-24T12:01:47;96124.84;;;12.92;49.43
28927;BME280;16038;47.692;9.400;2023-04-24T12:04:12;96127.13;;;13.15;49.69
28927;BME280;16038;47.692;9.400;2023-04-24T12:06:38;96135.41;;;13.11;49.88
28927;BME280;16038;47.692;9.400;2023-04-24T12:09:03;96119.56;;;13.51;49.69
28927;BME280;16038;47.692;9.400;2023-04-24T12:11:29;96116.19;;;13.96;49.04
28927;BME280;16038;47.692;9.400;2023-04-24T12:13:54;96122.19;;;13.76;48.94
28927;BME280;16038;47.692;9.400;2023-04-24T12:16:20;96126.56;;;13.70;48.87
28927;BME280;16038;47.692;9.400;2023-04-24T12:18:45;96126.69;;;13.42;48.71
28927;BME280;16038;47.692;9.400;2023-04-24T12:21:18;96129.66;;;13.76;48.80
28927;BME280;16038;47.692;9.400;2023-04-24T12:23:43;96136.38;;;13.68;48.79
28927;BME280;16038;47.692;9.400;2023-04-24T12:26:09;96132.56;;;13.44;48.77
28927;BME280;16038;47.692;9.400;2023-04-24T12:28:35;96138.13;;;13.15;49.29
28927;BME280;16038;47.692;9.400;2023-04-24T12:31:01;96138.03;;;13.54;49.40
28927;BME280;16038;47.692;9.400;2023-04-24T12:33:27;96137.59;;;13.67;48.71
28927;BME280;16038;47.692;9.400;2023-04-24T12:35:52;96144.59;;;13.75;49.17
28927;BME280;16038;47.692;9.400;2023-04-24T12:38:24;96131.19;;;13.81;49.02
28927;BME280;16038;47.692;9.400;2023-04-24T12:41:01;96132.59;;;13.33;49.08
28927;BME280;16038;47.692;9.400;2023-04-24T12:43:26;96134.97;;;13.34;50.00
28927;BME280;16038;47.692;9.400;2023-04-24T12:45:52;96125.69;;;13.84;49.06
28927;BME280;16038;47.692;9.400;2023-04-24T12:48:17;96114.63;;;13.91;47.92
28927;BME280;16038;47.692;9.400;2023-04-24T12:50:43;96118.13;;;14.03;47.09
28927;BME280;16038;47.692;9.400;2023-04-24T12:53:08;96117.72;;;13.97;48.38
28927;BME280;16038;47.692;9.400;2023-04-24T12:55:34;96112.16;;;14.08;47.71
28927;BME280;16038;47.692;9.400;2023-04-24T12:57:59;96120.00;;;14.13;47.93
28927;BME280;16038;47.692;9.400;2023-04-24T13:00:25;96119.66;;;14.04;48.22
28927;BME280;16038;47.692;9.400;2023-04-24T13:02:50;96114.84;;;14.15;48.89
28927;BME280;16038;47.692;9.400;2023-04-24T13:05:16;96112.97;;;14.05;47.68
28927;BME280;16038;47.692;9.400;2023-04-24T13:07:41;96108.78;;;13.82;48.29
28927;BME280;16038;47.692;9.400;2023-04-24T13:10:06;96102.53;;;13.74;47.78